Time;durP1;ratioP1;P1;durP2;ratioP2;P2;SDS_P1;SDS_P2;PMS_P1;PMS_P2;Temp;Humidity;BMP_temperature;BMP_pressure;BME280_temperature;BME280_humidity;BME280_pressure;Samples;Min_cycle;Max_cycle;Signal;HPM_P1;HPM_P2
2021/11/14 00:00:25;;;;;;;7.93;7.07;;;;;;;7.15;100.00;100909.47;5073550;28;20171;-74
2021/11/14 00:02:51;;;;;;;8.03;7.33;;;;;;;7.13;100.00;100911.66;5073557;28;20284;-74
2021/11/14 00:05:18;;;;;;;9.30;8.40;;;;;;;7.16;100.00;100914.63;5073148;28;20235;-73
2021/11/14 00:07:44;;;;;;;9.90;8.73;;;;;;;7.17;100.00;100918.16;5072840;28;20190;-75
2021/11/14 00:10:10;;;;;;;9.67;8.53;;;;;;;7.12;100.00;100918.19;5073588;28;20181;-75
2021/11/14 00:12:37;;;;;;;11.40;9.20;;;;;;;7.08;100.00;100915.19;5073361;28;20641;-75
2021/11/14 00:15:05;;;;;;;9.67;8.77;;;;;;;7.19;100.00;100915.97;5073425;28;20222;-75
2021/11/14 00:17:32;;;;;;;10.83;9.70;;;;;;;7.21;100.00;100921.13;5073306;28;20217;-75
2021/11/14 00:19:58;;;;;;;10.63;9.53;;;;;;;7.19;100.00;100921.41;5073327;28;20174;-75
2021/11/14 00:22:23;;;;;;;9.93;8.90;;;;;;;7.07;100.00;100927.16;5073151;28;20201;-74
2021/11/14 00:24:48;;;;;;;9.90;9.00;;;;;;;7.09;100.00;100924.19;5071508;28;20210;-75
2021/11/14 00:27:14;;;;;;;10.07;8.70;;;;;;;7.26;100.00;100926.56;5073140;28;20224;-72
2021/11/14 00:29:39;;;;;;;9.43;8.53;;;;;;;7.32;100.00;100926.25;5071670;28;20269;-75
2021/11/14 00:32:05;;;;;;;10.20;9.20;;;;;;;7.41;100.00;100935.47;5073160;28;20166;-74
2021/11/14 00:34:33;;;;;;;9.60;8.70;;;;;;;7.54;100.00;100927.81;5071517;28;20178;-74
2021/11/14 00:36:59;;;;;;;10.40;8.90;;;;;;;7.53;100.00;100942.50;5072943;28;20163;-74
2021/11/14 00:39:24;;;;;;;9.97;8.97;;;;;;;7.59;100.00;100941.38;5073002;28;20531;-74
2021/11/14 00:41:50;;;;;;;12.07;9.87;;;;;;;7.46;100.00;100940.06;5073399;28;20170;-73
2021/11/14 00:44:15;;;;;;;12.80;9.23;;;;;;;7.63;100.00;100943.25;5072452;28;20194;-74
2021/11/14 00:46:41;;;;;;;11.70;9.90;;;;;;;7.56;100.00;100936.50;5072862;28;20252;-73
2021/11/14 00:49:06;;;;;;;9.33;7.93;;;;;;;7.67;100.00;100944.34;5072663;28;20592;-73
2021/11/14 00:51:32;;;;;;;13.73;9.53;;;;;;;7.38;100.00;100944.19;5072104;28;20179;-73
2021/11/14 00:54:01;;;;;;;10.27;9.27;;;;;;;7.13;100.00;100938.84;5072580;28;20189;-72
2021/11/14 00:56:27;;;;;;;10.73;9.50;;;;;;;7.18;100.00;100946.97;5072762;28;20614;-73
2021/11/14 00:58:54;;;;;;;10.00;8.50;;;;;;;7.42;100.00;100945.25;5072810;28;20179;-72
2021/11/14 01:01:20;;;;;;;9.70;8.77;;;;;;;7.64;100.00;100953.03;5072663;28;20170;-72
2021/11/14 01:03:49;;;;;;;9.50;8.53;;;;;;;7.69;100.00;100949.50;5072427;28;20198;-75
2021/11/14 01:06:14;;;;;;;7.83;7.07;;;;;;;7.69;100.00;100958.47;5072381;28;20209;-74
2021/11/14 01:08:40;;;;;;;7.97;7.17;;;;;;;7.67;100.00;100962.56;5071986;28;20199;-75
2021/11/14 01:11:05;;;;;;;8.43;7.37;;;;;;;7.61;100.00;100956.31;5070993;28;20269;-74
2021/11/14 01:13:32;;;;;;;8.20;7.37;;;;;;;7.59;100.00;100963.94;5072327;28;20163;-74
2021/11/14 01:15:59;;;;;;;8.90;7.77;;;;;;;7.54;100.00;100969.41;5072179;28;20175;-75
2021/11/14 01:18:25;;;;;;;9.83;7.93;;;;;;;7.56;100.00;100964.50;5072404;28;20685;-76
2021/11/14 01:20:54;;;;;;;10.33;7.93;;;;;;;7.59;100.00;100971.28;5072425;28;20206;-75
2021/11/14 01:23:20;;;;;;;9.60;8.67;;;;;;;7.55;100.00;100967.50;5072108;28;20724;-77
2021/11/14 01:25:46;;;;;;;10.93;9.63;;;;;;;7.61;100.00;100975.34;5071941;28;20170;-76
2021/11/14 01:28:12;;;;;;;12.00;9.53;;;;;;;7.67;100.00;100982.41;5071189;28;20236;-76
2021/11/14 01:30:41;;;;;;;11.03;9.03;;;;;;;7.73;100.00;100980.47;5072280;28;20166;-76
2021/11/14 01:33:09;;;;;;;10.37;9.03;;;;;;;7.70;100.00;100991.91;5072311;28;20253;-76
2021/11/14 01:35:35;;;;;;;10.07;9.03;;;;;;;7.70;100.00;100981.84;5070983;28;20228;-76
2021/11/14 01:38:02;;;;;;;10.83;9.57;;;;;;;7.71;100.00;100990.81;5071947;28;20171;-75
2021/11/14 01:40:53;;;;;;;13.27;10.50;;;;;;;7.72;100.00;100987.00;5071854;28;20178;-76
2021/11/14 01:43:23;;;;;;;12.77;9.83;;;;;;;7.60;100.00;100984.59;5062193;28;20232;-76
2021/11/14 01:45:49;;;;;;;11.60;9.27;;;;;;;7.62;100.00;100992.47;5071643;28;20175;-75
2021/11/14 01:48:15;;;;;;;12.83;9.87;;;;;;;7.49;100.00;100990.34;5071580;28;20536;-76
2021/11/14 01:50:41;;;;;;;13.87;10.10;;;;;;;7.53;100.00;100994.16;5071565;28;20175;-76
2021/11/14 01:53:08;;;;;;;11.47;10.20;;;;;;;7.46;100.00;100989.81;5071556;28;20179;-76
2021/11/14 01:55:41;;;;;;;12.33;11.13;;;;;;;7.34;100.00;100994.75;5071388;28;20214;-75
2021/11/14 01:58:08;;;;;;;12.77;9.07;;;;;;;7.20;100.00;101003.75;5071779;28;20181;-76
2021/11/14 02:01:04;;;;;;;14.03;10.27;;;;;;;7.06;100.00;101004.31;5071351;28;20229;-75
2021/11/14 02:03:30;;;;;;;11.23;9.47;;;;;;;7.00;100.00;100997.28;5069296;28;20209;-76
2021/11/14 02:05:56;;;;;;;11.87;10.63;;;;;;;6.89;100.00;101000.25;5069894;28;20365;-75
2021/11/14 02:08:22;;;;;;;13.87;11.33;;;;;;;6.83;100.00;101007.63;5071130;28;20225;-76
2021/11/14 02:10:48;;;;;;;12.03;10.00;;;;;;;6.90;100.00;101012.75;5071190;28;20210;-76
2021/11/14 02:13:14;;;;;;;18.13;10.90;;;;;;;7.06;100.00;101011.66;5069840;28;20229;-75
2021/11/14 02:15:43;;;;;;;10.93;9.83;;;;;;;7.14;100.00;101022.78;5069571;28;20175;-76
2021/11/14 02:18:12;;;;;;;10.87;9.77;;;;;;;7.25;100.00;101020.06;5071165;28;20174;-73
2021/11/14 02:20:38;;;;;;;11.93;10.67;;;;;;;7.16;100.00;101025.22;5071423;28;20631;-76
2021/11/14 02:23:06;;;;;;;15.83;11.10;;;;;;;7.02;100.00;101021.44;5071546;28;20439;-75
2021/11/14 02:25:34;;;;;;;12.23;10.03;;;;;;;6.86;100.00;101012.50;5070587;28;20224;-75
2021/11/14 02:27:59;;;;;;;14.47;10.80;;;;;;;6.73;100.00;101011.13;5070911;28;20175;-76
2021/11/14 02:30:26;;;;;;;13.53;10.60;;;;;;;6.81;100.00;101017.94;5067259;28;20804;-75
2021/11/14 02:32:53;;;;;;;13.23;10.20;;;;;;;6.84;100.00;101023.63;5068483;28;20225;-76
2021/11/14 02:35:19;;;;;;;12.43;11.13;;;;;;;6.79;100.00;101037.19;5069950;28;20204;-76
2021/11/14 02:37:45;;;;;;;15.07;11.30;;;;;;;6.76;100.00;101032.31;5070519;28;20173;-76
2021/11/14 02:40:13;;;;;;;14.20;12.40;;;;;;;6.70;100.00;101038.03;5070561;28;20201;-75
2021/11/14 02:42:39;;;;;;;12.30;11.00;;;;;;;6.62;100.00;101031.22;5070443;28;20354;-72
2021/11/14 02:45:06;;;;;;;17.10;11.93;;;;;;;6.49;100.00;101040.69;5069956;28;20213;-72
2021/11/14 02:47:32;;;;;;;13.67;10.23;;;;;;;6.48;100.00;101041.78;5070666;28;20195;-74
2021/11/14 02:49:57;;;;;;;11.90;10.70;;;;;;;6.36;100.00;101040.41;5070624;28;20217;-75
2021/11/14 02:52:23;;;;;;;17.43;11.17;;;;;;;6.35;100.00;101046.91;5070368;28;20167;-74
2021/11/14 02:54:48;;;;;;;15.53;12.60;;;;;;;6.35;100.00;101047.72;5070339;28;20175;-75
2021/11/14 02:57:14;;;;;;;14.73;11.57;;;;;;;6.29;100.00;101045.28;5069032;28;20535;-74
2021/11/14 02:59:39;;;;;;;16.13;12.27;;;;;;;6.33;100.00;101058.03;5070391;28;20166;-74
2021/11/14 03:02:05;;;;;;;15.23;12.63;;;;;;;6.33;100.00;101049.09;5069200;28;20179;-74
2021/11/14 03:04:31;;;;;;;13.70;11.80;;;;;;;6.39;100.00;101054.28;5070497;28;20198;-72
2021/11/14 03:06:58;;;;;;;16.47;12.23;;;;;;;6.37;100.00;101051.00;5070256;28;20186;-75
2021/11/14 03:09:25;;;;;;;13.67;11.40;;;;;;;6.41;100.00;101052.09;5070332;28;20178;-74
2021/11/14 03:11:52;;;;;;;15.30;11.73;;;;;;;6.53;100.00;101058.09;5068973;28;20533;-74
2021/11/14 03:14:17;;;;;;;17.40;12.73;;;;;;;6.55;100.00;101060.53;5069819;28;20178;-75
2021/11/14 03:16:44;;;;;;;13.13;11.50;;;;;;;6.66;100.00;101061.38;5070264;28;20170;-75
2021/11/14 03:19:10;;;;;;;13.33;11.97;;;;;;;6.72;100.00;101063.81;5070123;28;20277;-74
2021/11/14 03:21:35;;;;;;;14.03;12.50;;;;;;;6.60;100.00;101062.44;5068958;28;20265;-74
2021/11/14 03:24:01;;;;;;;13.47;11.93;;;;;;;6.54;100.00;101067.06;5070008;28;20204;-74
2021/11/14 03:26:27;;;;;;;14.00;12.43;;;;;;;6.41;100.00;101060.25;5070084;28;20170;-74
2021/11/14 03:28:52;;;;;;;18.03;12.87;;;;;;;6.34;100.00;101050.72;5070111;28;20175;-74
2021/11/14 03:31:18;;;;;;;14.17;11.23;;;;;;;6.47;100.00;101064.59;5070179;28;20175;-75
2021/11/14 03:33:44;;;;;;;13.87;12.10;;;;;;;6.54;100.00;101070.59;5069638;28;20650;-75
2021/11/14 03:36:13;;;;;;;16.20;12.73;;;;;;;6.48;100.00;101063.50;5069778;28;20201;-74
2021/11/14 03:38:42;;;;;;;12.63;11.17;;;;;;;6.45;100.00;101074.09;5068501;28;20185;-75
2021/11/14 03:41:10;;;;;;;18.13;13.07;;;;;;;6.30;100.00;101076.75;5070057;28;20177;-75
2021/11/14 03:43:37;;;;;;;17.57;12.33;;;;;;;6.27;100.00;101072.69;5069911;28;20198;-75
2021/11/14 03:46:03;;;;;;;17.87;13.63;;;;;;;6.28;100.00;101079.75;5069898;28;20171;-75
2021/11/14 03:48:29;;;;;;;15.37;12.80;;;;;;;6.27;100.00;101080.84;5069885;28;20584;-75
2021/11/14 03:50:55;;;;;;;17.00;13.13;;;;;;;6.26;100.00;101085.44;5069939;28;20174;-75
2021/11/14 03:53:21;;;;;;;14.10;12.37;;;;;;;6.23;100.00;101080.56;5069692;28;20181;-75
2021/11/14 03:55:49;;;;;;;15.90;13.30;;;;;;;6.28;100.00;101085.19;5069675;28;20471;-74
2021/11/14 03:58:15;;;;;;;17.47;13.67;;;;;;;6.25;100.00;101077.56;5070275;28;20612;-74
2021/11/14 04:00:46;;;;;;;16.27;13.30;;;;;;;6.30;100.00;101083.00;5068310;28;20174;-74
2021/11/14 04:03:12;;;;;;;21.43;15.50;;;;;;;6.23;100.00;101083.28;5069779;28;20205;-75
2021/11/14 04:05:38;;;;;;;23.67;15.73;;;;;;;6.24;100.00;101082.19;5069586;28;20163;-74
2021/11/14 04:08:18;;;;;;;23.07;15.77;;;;;;;6.26;100.00;101085.44;5069632;28;20666;-74
2021/11/14 04:10:45;;;;;;;21.37;15.90;;;;;;;6.20;100.00;101081.06;5069795;28;20171;-74
2021/11/14 04:13:11;;;;;;;20.40;15.80;;;;;;;6.25;100.00;101108.22;5069624;28;20178;-75
2021/11/14 04:15:37;;;;;;;25.00;17.40;;;;;;;6.23;100.00;101106.88;5069422;28;20526;-74
2021/11/14 04:18:03;;;;;;;25.23;17.13;;;;;;;6.21;100.00;101106.28;5069866;28;20182;-75
2021/11/14 04:20:30;;;;;;;26.87;17.40;;;;;;;6.19;100.00;101111.19;5069629;28;20173;-75
2021/11/14 04:22:57;;;;;;;24.67;18.87;;;;;;;6.16;100.00;101109.81;5068023;28;20266;-74
2021/11/14 04:25:24;;;;;;;28.83;18.17;;;;;;;6.19;100.00;101119.31;5070312;28;20396;-74
2021/11/14 04:27:49;;;;;;;35.97;19.63;;;;;;;6.18;100.00;101113.06;5073580;28;20179;-74
2021/11/14 04:30:16;;;;;;;26.67;17.90;;;;;;;6.22;100.00;101110.63;5073124;28;20430;-74
2021/11/14 04:32:41;;;;;;;31.37;17.93;;;;;;;6.19;100.00;101125.56;5073055;28;20170;-75
2021/11/14 04:35:07;;;;;;;39.80;19.07;;;;;;;6.18;100.00;101123.13;5072870;28;20181;-74
2021/11/14 04:37:33;;;;;;;27.13;17.20;;;;;;;6.21;100.00;101122.56;5073042;28;20174;-74
2021/11/14 04:39:58;;;;;;;36.47;19.07;;;;;;;6.16;100.00;101128.00;5072974;28;20174;-75
2021/11/14 04:42:24;;;;;;;32.93;18.33;;;;;;;6.19;100.00;101124.75;5073011;28;20602;-75
2021/11/14 04:44:49;;;;;;;24.83;17.20;;;;;;;6.14;100.00;101128.25;5072515;28;20745;-74
2021/11/14 04:47:15;;;;;;;27.40;17.47;;;;;;;6.18;100.00;101133.97;5072802;28;20219;-75
2021/11/14 04:49:41;;;;;;;34.73;17.87;;;;;;;6.20;100.00;101132.63;5072818;28;20173;-75
2021/11/14 04:52:07;;;;;;;39.40;19.07;;;;;;;6.23;100.00;101142.97;5072687;28;20654;-74
2021/11/14 04:54:32;;;;;;;37.93;20.47;;;;;;;6.25;100.00;101151.66;5072366;28;20173;-75
2021/11/14 04:56:58;;;;;;;37.30;19.30;;;;;;;6.25;100.00;101157.06;5072695;28;20433;-75
2021/11/14 04:59:24;;;;;;;33.90;16.87;;;;;;;6.23;100.00;101148.38;5072590;28;20182;-75
2021/11/14 05:01:49;;;;;;;36.03;17.67;;;;;;;6.27;100.00;101156.81;5072323;28;20163;-75
2021/11/14 05:04:15;;;;;;;34.60;16.90;;;;;;;6.27;100.00;101154.09;5071966;28;20239;-75
2021/11/14 05:06:41;;;;;;;29.03;17.17;;;;;;;6.29;100.00;101157.34;5072376;28;20183;-74
2021/11/14 05:09:07;;;;;;;34.33;16.93;;;;;;;6.29;100.00;101154.63;5072724;28;20166;-75
2021/11/14 05:11:33;;;;;;;28.53;16.60;;;;;;;6.32;100.00;101158.72;5072608;28;20570;-75
2021/11/14 05:13:58;;;;;;;29.70;17.27;;;;;;;6.33;100.00;101157.63;5072148;28;20379;-73
2021/11/14 05:16:23;;;;;;;37.17;19.87;;;;;;;6.40;100.00;101155.50;5072376;28;20170;-73
2021/11/14 05:18:49;;;;;;;31.30;17.17;;;;;;;6.36;100.00;101163.34;5070900;28;20527;-74
2021/11/14 05:21:15;;;;;;;28.57;16.43;;;;;;;6.34;100.00;101162.78;5072828;28;20533;-73
2021/11/14 05:23:40;;;;;;;32.47;16.97;;;;;;;6.32;100.00;101167.66;5071865;28;20230;-73
2021/11/14 05:26:05;;;;;;;27.63;16.60;;;;;;;6.36;100.00;101182.34;5072012;28;20213;-73
2021/11/14 05:28:31;;;;;;;28.17;16.50;;;;;;;6.31;100.00;101176.09;5072063;28;20170;-74
2021/11/14 05:30:57;;;;;;;38.07;18.13;;;;;;;6.30;100.00;101183.41;5071929;28;20178;-73
2021/11/14 05:33:22;;;;;;;28.67;16.03;;;;;;;6.32;100.00;101181.25;5071810;28;20202;-73
2021/11/14 05:35:48;;;;;;;39.77;18.57;;;;;;;6.28;100.00;101182.84;5071258;28;20190;-73
2021/11/14 05:38:14;;;;;;;35.17;16.67;;;;;;;6.35;100.00;101191.56;5071644;28;20631;-73
2021/11/14 05:40:41;;;;;;;35.77;17.67;;;;;;;6.37;100.00;101192.13;5071906;28;20257;-73
2021/11/14 05:43:06;;;;;;;31.37;16.80;;;;;;;6.39;100.00;101202.72;5071581;28;20179;-74
2021/11/14 05:45:32;;;;;;;43.33;17.47;;;;;;;6.34;100.00;101206.22;5071356;28;20202;-73
2021/11/14 05:47:58;;;;;;;34.90;16.03;;;;;;;6.37;100.00;101203.00;5071633;28;20179;-73
2021/11/14 05:50:24;;;;;;;41.33;18.30;;;;;;;6.32;100.00;101200.22;5071751;28;20683;-74
2021/11/14 05:52:50;;;;;;;49.33;19.23;;;;;;;6.33;100.00;101210.00;5071465;28;20433;-74
2021/11/14 05:55:16;;;;;;;47.73;17.97;;;;;;;6.33;100.00;101206.47;5071311;28;20257;-74
2021/11/14 06:00:21;;;;;;;40.07;18.17;;;;;;;6.36;100.00;101222.22;5071467;28;20240;-74
2021/11/14 06:02:54;;;;;;;45.93;18.27;;;;;;;6.33;100.00;101223.56;5071280;28;20181;-74
2021/11/14 06:05:20;;;;;;;36.10;16.93;;;;;;;6.37;100.00;101229.31;5070948;28;20601;-73
2021/11/14 06:07:47;;;;;;;40.73;18.00;;;;;;;6.32;100.00;101230.09;5071284;28;20228;-74
2021/11/14 06:10:14;;;;;;;50.83;17.20;;;;;;;6.33;100.00;101231.72;5071288;28;20181;-74
2021/11/14 06:12:40;;;;;;;50.53;17.13;;;;;;;6.34;100.00;101236.06;5071149;28;20179;-74
2021/11/14 06:15:09;;;;;;;42.73;17.93;;;;;;;6.34;100.00;101236.06;5070782;28;20178;-74
2021/11/14 06:17:34;;;;;;;48.73;17.27;;;;;;;6.35;100.00;101247.72;5071135;28;20198;-74
2021/11/14 06:20:00;;;;;;;50.67;18.00;;;;;;;6.37;100.00;101251.84;5071146;28;20217;-74
2021/11/14 06:22:25;;;;;;;43.80;17.90;;;;;;;6.35;100.00;101258.59;5071106;28;20174;-74
2021/11/14 06:24:51;;;;;;;45.37;17.33;;;;;;;6.37;100.00;101254.56;5070695;28;20649;-74
2021/11/14 06:27:16;;;;;;;42.27;16.63;;;;;;;6.37;100.00;101251.84;5070939;28;20634;-74
2021/11/14 06:29:42;;;;;;;38.60;16.37;;;;;;;6.38;100.00;101267.03;5069419;28;20182;-74
2021/11/14 06:32:08;;;;;;;50.13;18.53;;;;;;;6.41;100.00;101276.56;5069705;28;20178;-74
2021/11/14 06:34:33;;;;;;;34.70;17.40;;;;;;;6.44;100.00;101279.56;5070811;28;20646;-73
2021/11/14 06:36:58;;;;;;;46.10;16.57;;;;;;;6.40;100.00;101281.16;5070840;28;20202;-74
2021/11/14 06:39:24;;;;;;;48.93;17.53;;;;;;;6.37;100.00;101286.31;5070794;28;20261;-74
2021/11/14 06:41:49;;;;;;;46.00;17.90;;;;;;;6.37;100.00;101295.28;5069473;28;20178;-74
2021/11/14 06:44:14;;;;;;;41.40;16.43;;;;;;;6.38;100.00;101296.91;5070338;28;20209;-74
2021/11/14 06:46:40;;;;;;;37.70;16.63;;;;;;;6.37;100.00;101302.59;5069564;28;20430;-74
2021/11/14 06:49:05;;;;;;;46.33;18.10;;;;;;;6.39;100.00;101298.53;5070059;28;20253;-74
2021/11/14 06:51:31;;;;;;;46.93;17.37;;;;;;;6.42;100.00;101308.03;5070662;28;20178;-74
2021/11/14 06:53:56;;;;;;;47.43;17.57;;;;;;;6.43;100.00;101305.06;5069904;28;20202;-74
2021/11/14 06:56:22;;;;;;;45.03;18.63;;;;;;;6.43;100.00;101299.63;5070459;28;20185;-73
2021/11/14 06:58:48;;;;;;;40.23;16.90;;;;;;;6.48;100.00;101306.97;5070591;28;20586;-73
2021/11/14 07:01:13;;;;;;;35.93;15.63;;;;;;;6.46;100.00;101309.97;5070421;28;20526;-74
2021/11/14 07:03:38;;;;;;;53.03;17.43;;;;;;;6.50;100.00;101305.63;5070277;28;20194;-74
2021/11/14 07:06:04;;;;;;;35.83;17.30;;;;;;;6.53;100.00;101307.84;5070435;28;20650;-73
2021/11/14 07:08:29;;;;;;;32.77;16.33;;;;;;;6.52;100.00;101317.06;5070372;28;20253;-74
2021/11/14 07:10:54;;;;;;;40.90;16.67;;;;;;;6.54;100.00;101330.38;5068918;28;20174;-74
2021/11/14 07:13:20;;;;;;;47.17;18.33;;;;;;;6.59;100.00;101321.44;5070318;28;20189;-72
2021/11/14 07:15:45;;;;;;;38.77;16.73;;;;;;;6.57;100.00;101330.66;5070033;28;20265;-72
2021/11/14 07:18:11;;;;;;;33.73;16.87;;;;;;;6.53;100.00;101329.56;5070228;28;20175;-72
2021/11/14 07:20:36;;;;;;;41.87;19.57;;;;;;;6.50;100.00;101343.63;5070269;28;20175;-72
2021/11/14 07:23:01;;;;;;;46.57;19.87;;;;;;;6.49;100.00;101333.03;5068921;28;20231;-71
2021/11/14 07:25:27;;;;;;;39.67;16.43;;;;;;;6.53;100.00;101348.56;5069786;28;20662;-72
2021/11/14 07:27:53;;;;;;;45.17;19.40;;;;;;;6.54;100.00;101354.81;5070101;28;20258;-73
2021/11/14 07:30:20;;;;;;;36.50;18.43;;;;;;;6.56;100.00;101364.31;5070164;28;20726;-73
2021/11/14 07:32:46;;;;;;;39.90;18.43;;;;;;;6.51;100.00;101356.16;5070087;28;20185;-71
2021/11/14 07:35:14;;;;;;;43.70;18.47;;;;;;;6.52;100.00;101365.94;5068616;28;20182;-74
2021/11/14 07:37:40;;;;;;;41.23;18.13;;;;;;;6.50;100.00;101370.78;5070034;28;20167;-75
2021/11/14 07:40:08;;;;;;;32.20;16.93;;;;;;;6.52;100.00;101376.78;5069986;28;20235;-75
2021/11/14 07:42:34;;;;;;;37.20;17.53;;;;;;;6.58;100.00;101377.63;5070058;28;20303;-75
2021/11/14 07:44:59;;;;;;;49.30;20.37;;;;;;;6.53;100.00;101383.03;5069791;28;20293;-75
2021/11/14 07:47:25;;;;;;;39.80;19.43;;;;;;;6.50;100.00;101386.25;5070084;28;20313;-75
2021/11/14 07:49:50;;;;;;;43.60;19.20;;;;;;;6.51;100.00;101385.19;5069948;28;20208;-75
2021/11/14 07:52:16;;;;;;;44.93;19.27;;;;;;;6.50;100.00;101387.06;5069681;28;20177;-75
2021/11/14 07:54:44;;;;;;;44.13;17.97;;;;;;;6.50;100.00;101400.63;5069689;28;20177;-75
2021/11/14 07:57:09;;;;;;;39.70;18.97;;;;;;;6.49;100.00;101392.75;5069794;28;20182;-77
2021/11/14 07:59:34;;;;;;;47.27;18.13;;;;;;;6.55;100.00;101389.84;5071256;28;20174;-75
2021/11/14 08:02:00;;;;;;;33.13;18.73;;;;;;;6.49;100.00;101396.28;5073672;28;20171;-75
2021/11/14 08:04:25;;;;;;;42.07;19.47;;;;;;;6.48;100.00;101397.38;5073377;28;20208;-75
2021/11/14 08:06:51;;;;;;;47.63;18.27;;;;;;;6.50;100.00;101388.97;5073413;28;20194;-78
2021/11/14 08:09:16;;;;;;;36.90;18.40;;;;;;;6.54;100.00;101395.53;5067693;28;20623;-75
2021/11/14 08:11:41;;;;;;;50.23;18.50;;;;;;;6.54;100.00;101403.69;5070301;28;20183;-77
2021/11/14 08:14:07;;;;;;;38.10;18.67;;;;;;;6.59;100.00;101408.31;5073248;28;20634;-76
2021/11/14 08:16:32;;;;;;;36.10;18.63;;;;;;;6.62;100.00;101415.94;5073723;28;20213;-77
2021/11/14 08:18:57;;;;;;;48.47;18.93;;;;;;;6.60;100.00;101412.66;5073554;28;20634;-81
2021/11/14 08:21:23;;;;;;;41.13;19.13;;;;;;;6.59;100.00;101417.28;5072501;28;20574;-77
2021/11/14 08:23:48;;;;;;;38.50;17.53;;;;;;;6.55;100.00;101424.31;5071684;28;20209;-72
2021/11/14 08:26:14;;;;;;;43.73;19.07;;;;;;;6.55;100.00;101424.31;5073018;28;20186;-75
2021/11/14 08:28:39;;;;;;;42.07;18.87;;;;;;;6.56;100.00;101423.22;5073100;28;20193;-75
2021/11/14 08:31:04;;;;;;;38.17;18.50;;;;;;;6.57;100.00;101430.28;5073201;28;20574;-74
2021/11/14 08:33:31;;;;;;;33.23;17.40;;;;;;;6.64;100.00;101427.34;5073209;28;20530;-75
2021/11/14 08:35:57;;;;;;;34.83;18.30;;;;;;;6.63;100.00;101437.38;5072999;28;20262;-76
2021/11/14 08:38:24;;;;;;;34.40;17.60;;;;;;;6.64;100.00;101425.44;5071917;28;20261;-76
2021/11/14 08:40:49;;;;;;;31.97;17.33;;;;;;;6.70;100.00;101439.91;5068834;28;20179;-76
2021/11/14 08:43:15;;;;;;;31.77;17.00;;;;;;;6.62;100.00;101443.91;5072579;28;20228;-75
2021/11/14 08:45:42;;;;;;;28.60;17.13;;;;;;;6.64;100.00;101449.06;5072159;28;20209;-75
2021/11/14 08:48:08;;;;;;;34.07;18.70;;;;;;;6.63;100.00;101453.69;5065905;28;20175;-75
2021/11/14 08:50:34;;;;;;;36.20;19.40;;;;;;;6.63;100.00;101450.16;5069249;28;20190;-75
2021/11/14 08:53:01;;;;;;;34.30;18.37;;;;;;;6.64;100.00;101455.31;5071311;28;20182;-75
2021/11/14 08:55:27;;;;;;;46.47;19.53;;;;;;;6.60;100.00;101462.34;5071180;28;20181;-75
2021/11/14 08:57:55;;;;;;;40.07;19.30;;;;;;;6.73;100.00;101455.66;5071278;28;20182;-72
2021/11/14 09:00:24;;;;;;;37.73;19.87;;;;;;;6.64;100.00;101451.78;5069127;28;20205;-73
2021/11/14 09:02:51;;;;;;;42.67;18.47;;;;;;;6.69;100.00;101455.38;5071397;28;20166;-72
2021/11/14 09:05:22;;;;;;;34.83;19.77;;;;;;;6.74;100.00;101462.72;5070870;28;20263;-72
2021/11/14 09:07:48;;;;;;;43.40;21.23;;;;;;;6.71;100.00;101463.25;5070896;28;20183;-72
2021/11/14 09:10:15;;;;;;;42.10;20.33;;;;;;;6.69;100.00;101479.00;5069002;28;20638;-72
2021/11/14 09:12:40;;;;;;;43.83;19.23;;;;;;;6.68;100.00;101480.06;5068415;28;20244;-72
2021/11/14 09:15:08;;;;;;;46.13;21.77;;;;;;;6.69;100.00;101481.72;5067401;28;20182;-72
2021/11/14 09:17:33;;;;;;;43.53;19.73;;;;;;;6.74;100.00;101482.56;5068498;28;20707;-72
2021/11/14 09:19:59;;;;;;;45.70;20.10;;;;;;;6.76;100.00;101491.25;5070960;28;20175;-72
2021/11/14 09:22:25;;;;;;;45.07;20.37;;;;;;;6.77;100.00;101494.78;5070461;28;20175;-72
2021/11/14 09:24:50;;;;;;;44.17;20.07;;;;;;;6.77;100.00;101490.19;5070664;28;20653;-72
2021/11/14 09:27:16;;;;;;;46.47;21.60;;;;;;;6.75;100.00;101497.78;5069643;28;20198;-72
2021/11/14 09:29:41;;;;;;;45.47;21.40;;;;;;;6.77;100.00;101498.31;5069383;28;20175;-72
2021/11/14 09:32:07;;;;;;;42.53;21.03;;;;;;;6.77;100.00;101502.94;5069489;28;20269;-72
2021/11/14 09:34:33;;;;;;;48.00;22.07;;;;;;;6.79;100.00;101504.31;5069132;28;20187;-72
2021/11/14 09:36:59;;;;;;;43.17;20.93;;;;;;;6.86;100.00;101504.09;5070629;28;20187;-73
2021/11/14 09:39:24;;;;;;;54.27;22.20;;;;;;;6.90;100.00;101509.81;5070550;28;20174;-72
2021/11/14 09:41:53;;;;;;;43.93;23.60;;;;;;;6.80;100.00;101521.47;5070607;28;20179;-72
2021/11/14 09:44:20;;;;;;;58.23;21.17;;;;;;;6.93;100.00;101529.13;5067352;28;20284;-72
2021/11/14 09:47:03;;;;;;;52.87;22.37;;;;;;;6.95;100.00;101518.03;5070379;28;20618;-72
2021/11/14 09:49:31;;;;;;;59.63;25.23;;;;;;;6.91;100.00;101516.91;5069518;28;20280;-72
2021/11/14 09:51:59;;;;;;;52.77;24.17;;;;;;;6.92;100.00;101523.97;5070384;28;20300;-73
2021/11/14 09:54:27;;;;;;;58.70;24.17;;;;;;;6.91;100.00;101534.00;5069999;28;20211;-71
2021/11/14 09:56:54;;;;;;;53.37;23.57;;;;;;;6.89;100.00;101529.94;5070901;28;20179;-74
2021/11/14 09:59:20;;;;;;;54.10;22.83;;;;;;;6.92;100.00;101535.66;5071499;28;20182;-72
2021/11/14 10:01:47;;;;;;;39.77;21.37;;;;;;;6.98;100.00;101539.25;5071433;28;20698;-72
2021/11/14 10:04:13;;;;;;;59.30;23.93;;;;;;;7.01;100.00;101539.53;5071144;28;20233;-72
2021/11/14 10:06:38;;;;;;;41.60;20.43;;;;;;;7.04;100.00;101540.91;5071230;28;20646;-72
2021/11/14 10:09:08;;;;;;;46.33;21.93;;;;;;;6.94;100.00;101544.34;5071595;28;20166;-72
2021/11/14 10:11:37;;;;;;;46.30;22.57;;;;;;;6.94;100.00;101549.78;5069954;28;20202;-72
2021/11/14 10:14:03;;;;;;;47.47;23.17;;;;;;;6.96;100.00;101546.84;5070964;28;20419;-72
2021/11/14 10:16:30;;;;;;;46.23;21.70;;;;;;;6.94;100.00;101546.25;5071161;28;20257;-72
2021/11/14 10:19:04;;;;;;;44.03;22.40;;;;;;;7.00;100.00;101540.63;5071112;28;20178;-72
2021/11/14 10:21:32;;;;;;;42.23;23.60;;;;;;;7.02;100.00;101552.03;5070815;28;20175;-72
2021/11/14 10:23:59;;;;;;;50.30;23.30;;;;;;;7.03;100.00;101545.53;5069806;28;20276;-72
2021/11/14 10:26:29;;;;;;;54.47;24.13;;;;;;;7.08;100.00;101540.13;5071104;28;20258;-72
2021/11/14 10:29:03;;;;;;;53.90;24.03;;;;;;;7.08;100.00;101545.53;5070923;28;20206;-72
2021/11/14 10:31:29;;;;;;;54.90;23.23;;;;;;;7.08;100.00;101542.81;5070783;28;20178;-72
2021/11/14 10:33:55;;;;;;;40.30;21.90;;;;;;;7.13;100.00;101545.59;5069378;28;20182;-73
2021/11/14 10:36:22;;;;;;;38.27;21.00;;;;;;;7.22;100.00;101547.81;5070920;28;20186;-73
2021/11/14 10:38:48;;;;;;;50.03;21.80;;;;;;;7.25;100.00;101539.16;5070730;28;20205;-72
2021/11/14 10:41:16;;;;;;;41.67;22.07;;;;;;;7.17;100.00;101545.91;5070766;28;20183;-73
2021/11/14 10:43:43;;;;;;;42.90;21.90;;;;;;;7.19;100.00;101542.91;5068976;28;20523;-72
2021/11/14 10:46:23;;;;;;;39.80;20.20;;;;;;;7.25;100.00;101539.16;5069252;28;20561;-73
2021/11/14 10:48:50;;;;;;;42.50;21.50;;;;;;;7.30;100.00;101540.00;5070881;28;20167;-72
2021/11/14 10:51:17;;;;;;;43.23;20.83;;;;;;;7.28;100.00;101536.72;5070510;28;20182;-72
2021/11/14 10:53:45;;;;;;;44.60;22.00;;;;;;;7.23;100.00;101547.56;5070408;28;20189;-72
2021/11/14 10:56:13;;;;;;;36.07;20.53;;;;;;;7.28;100.00;101542.16;5070395;28;20181;-72
2021/11/14 10:58:41;;;;;;;37.30;19.30;;;;;;;7.27;100.00;101547.88;5069101;28;20517;-72
2021/11/14 11:01:10;;;;;;;44.67;21.10;;;;;;;7.16;100.00;101547.78;5070331;28;20610;-72
2021/11/14 11:03:48;;;;;;;38.33;20.37;;;;;;;7.23;100.00;101549.44;5070438;28;20261;-72
2021/11/14 11:06:27;;;;;;;35.60;20.23;;;;;;;7.20;100.00;101561.66;5070442;28;20193;-73
2021/11/14 11:08:57;;;;;;;38.67;21.33;;;;;;;7.11;100.00;101550.47;5070849;28;20198;-72
2021/11/14 11:11:24;;;;;;;37.70;19.73;;;;;;;7.14;100.00;101555.38;5070356;28;20274;-73